Airfield :
LOGIN :

Register | Disclaimer

   EN    FR    IT 

 










Legend :    VFR   Marginal VFR   IFR   Intensive IFR   Very Intensive IFR
Visi :
Ceiling :
>= 8 km
>= 3000ft
5 to 8 km
1000 to 3000 ft
1500m to 5 km
500 to 1000 ft
800 to 1500m
200 to 500 ft
< 800m
< 200 ft
Symbols :   Thunderstorms  Fog  Heavy snow  Heavy precipitations  Wind > 20 kt
SIGMETs :     Misc.  Thunderstorms  Icing  Turbulence  Mountain Waves  Volcanic Ashes







- Airport Elevation : 124 ft
- IATA code : RNS
- Download approach charts


LFRN - Rennes

CURRENT METAR :
  • 210800Z AUTO 00000KT 1500 0400 R28L/1900U R10R/2000D BCFG BKN028 M02/M02 Q1024 BECMG 9999 NSW

EXPIRED METARs :
  • 210730Z AUTO 30001KT 3000 1000 R28L/P2000 R10R/P2000 BR OVC028 M02/M02 Q1024 BECMG 9999 NSW
  • 210700Z AUTO 29002KT 0550 0500 R28L/0750D R10R/1500U FZFG FEW029 M03/M03 Q1024 NOSIG
  • 210630Z AUTO 29001KT 0550 0500 R28L/1000D R10R/P2000U FZFG NSC M02/M02 Q1024 NOSIG
  • 210600Z AUTO 32003KT 0650 0400 R28L/P2000 R10R/0900U FZFG FEW003 M03/M03 Q1024 TEMPO 0400 FZFG
  • 210530Z AUTO 30002KT 1000 0400 R28L/0650D R10R/1300U BCFG NSC M03/M03 Q1024 TEMPO 0400 FZFG

TAF TAF LFRN
Valid from the 21 at 06:00 until the 22 at 06:00 UTC


210500Z 2106/2206 VRB03KT 3000 BR SCT040
TEMPO 2106/2109 0400 FZFG
BECMG 2108/2110 9999 NSW
BECMG 2120/2122 20010KT
TEMPO 2122/2201 5000 RA
BECMG 2201/2203 4000 RA BKN012
TEMPO 2203/2206 3000 RA BKN004
BECMG 2204/2206 23005KT
ATIS : +33 2 99 67 72 50
No reported NOTAMs for that airfield.



MET'MAP, your aeronautical weather chart ! - Copyright ORBIFLY December 2007 - Disclaimer

ORBIFLY MET'MAP TEAM :

Programming & Development : Alexandra Zaïnal
Concept & Development : Baudouin d'Aumeries
Co-Development & Prog : Marc-Olivier Méhu
Technical & hardware support : Manuel Goepfert

Contact : metmap@orbifly.com




SOURCES & CREDITS :

   NOAA